sensor_id;sensor_type;location;lat;lon;timestamp;P1;durP1;ratioP1;P2;durP2;ratioP2
25609;SDS011;13479;49.044;8.716;2023-11-19T05:00:50;2.85;;;0.43;;
25609;SDS011;13479;49.044;8.716;2023-11-19T05:03:16;1.42;;;0.40;;
25609;SDS011;13479;49.044;8.716;2023-11-19T05:05:41;0.70;;;0.40;;
25609;SDS011;13479;49.044;8.716;2023-11-19T05:08:06;1.13;;;0.40;;
25609;SDS011;13479;49.044;8.716;2023-11-19T05:10:31;0.57;;;0.40;;
25609;SDS011;13479;49.044;8.716;2023-11-19T05:12:57;1.48;;;0.35;;
25609;SDS011;13479;49.044;8.716;2023-11-19T05:15:22;9.18;;;0.68;;
25609;SDS011;13479;49.044;8.716;2023-11-19T05:17:47;3.03;;;0.60;;
25609;SDS011;13479;49.044;8.716;2023-11-19T05:20:13;1.20;;;0.40;;
25609;SDS011;13479;49.044;8.716;2023-11-19T05:22:41;2.15;;;0.40;;
25609;SDS011;13479;49.044;8.716;2023-11-19T05:25:07;1.90;;;0.38;;
25609;SDS011;13479;49.044;8.716;2023-11-19T05:27:36;0.85;;;0.43;;
25609;SDS011;13479;49.044;8.716;2023-11-19T05:30:02;0.93;;;0.47;;
25609;SDS011;13479;49.044;8.716;2023-11-19T05:32:31;2.08;;;0.60;;
25609;SDS011;13479;49.044;8.716;2023-11-19T05:34:56;2.97;;;0.45;;
25609;SDS011;13479;49.044;8.716;2023-11-19T05:37:22;1.52;;;0.47;;
25609;SDS011;13479;49.044;8.716;2023-11-19T05:39:47;0.90;;;0.40;;
25609;SDS011;13479;49.044;8.716;2023-11-19T05:42:12;2.20;;;0.32;;
25609;SDS011;13479;49.044;8.716;2023-11-19T05:44:37;0.98;;;0.30;;
25609;SDS011;13479;49.044;8.716;2023-11-19T05:47:03;1.85;;;0.40;;
25609;SDS011;13479;49.044;8.716;2023-11-19T05:49:28;1.15;;;0.50;;
25609;SDS011;13479;49.044;8.716;2023-11-19T05:51:54;1.73;;;0.50;;
25609;SDS011;13479;49.044;8.716;2023-11-19T05:54:20;3.15;;;0.47;;
25609;SDS011;13479;49.044;8.716;2023-11-19T05:56:49;0.70;;;0.30;;
25609;SDS011;13479;49.044;8.716;2023-11-19T05:59:14;1.75;;;0.43;;
25609;SDS011;13479;49.044;8.716;2023-11-19T06:01:42;2.22;;;0.30;;
25609;SDS011;13479;49.044;8.716;2023-11-19T06:04:08;0.82;;;0.38;;
25609;SDS011;13479;49.044;8.716;2023-11-19T06:06:34;0.73;;;0.40;;
25609;SDS011;13479;49.044;8.716;2023-11-19T06:09:00;1.73;;;0.40;;
25609;SDS011;13479;49.044;8.716;2023-11-19T06:11:26;1.50;;;0.40;;
25609;SDS011;13479;49.044;8.716;2023-11-19T06:13:52;3.42;;;0.38;;
25609;SDS011;13479;49.044;8.716;2023-11-19T06:16:17;1.10;;;0.40;;
25609;SDS011;13479;49.044;8.716;2023-11-19T06:18:43;0.95;;;0.40;;
25609;SDS011;13479;49.044;8.716;2023-11-19T06:21:09;0.52;;;0.20;;
25609;SDS011;13479;49.044;8.716;2023-11-19T06:23:35;1.00;;;0.25;;
25609;SDS011;13479;49.044;8.716;2023-11-19T06:26:00;0.73;;;0.30;;
25609;SDS011;13479;49.044;8.716;2023-11-19T06:28:25;0.22;;;0.20;;
25609;SDS011;13479;49.044;8.716;2023-11-19T06:30:50;0.30;;;0.20;;
25609;SDS011;13479;49.044;8.716;2023-11-19T06:33:16;1.13;;;0.47;;
25609;SDS011;13479;49.044;8.716;2023-11-19T06:35:41;0.30;;;0.20;;
25609;SDS011;13479;49.044;8.716;2023-11-19T06:38:06;0.38;;;0.20;;
25609;SDS011;13479;49.044;8.716;2023-11-19T06:40:33;1.38;;;0.30;;
25609;SDS011;13479;49.044;8.716;2023-11-19T06:43:00;0.43;;;0.20;;
25609;SDS011;13479;49.044;8.716;2023-11-19T06:45:25;0.57;;;0.30;;
25609;SDS011;13479;49.044;8.716;2023-11-19T06:47:51;0.50;;;0.30;;
25609;SDS011;13479;49.044;8.716;2023-11-19T06:50:16;1.15;;;0.50;;
25609;SDS011;13479;49.044;8.716;2023-11-19T06:52:41;1.60;;;0.30;;
25609;SDS011;13479;49.044;8.716;2023-11-19T06:55:07;0.77;;;0.30;;
25609;SDS011;13479;49.044;8.716;2023-11-19T06:57:32;0.68;;;0.30;;
25609;SDS011;13479;49.044;8.716;2023-11-19T06:59:58;1.70;;;0.30;;
25609;SDS011;13479;49.044;8.716;2023-11-19T07:02:24;2.00;;;0.50;;
25609;SDS011;13479;49.044;8.716;2023-11-19T07:04:50;2.45;;;0.60;;
25609;SDS011;13479;49.044;8.716;2023-11-19T07:07:15;1.00;;;0.50;;
25609;SDS011;13479;49.044;8.716;2023-11-19T07:09:40;3.03;;;0.40;;
25609;SDS011;13479;49.044;8.716;2023-11-19T07:12:06;1.05;;;0.32;;
25609;SDS011;13479;49.044;8.716;2023-11-19T07:14:31;0.32;;;0.30;;
25609;SDS011;13479;49.044;8.716;2023-11-19T07:16:57;3.22;;;0.45;;
25609;SDS011;13479;49.044;8.716;2023-11-19T07:19:22;1.58;;;0.40;;
25609;SDS011;13479;49.044;8.716;2023-11-19T07:21:47;1.38;;;0.40;;
25609;SDS011;13479;49.044;8.716;2023-11-19T07:24:13;2.25;;;0.40;;
25609;SDS011;13479;49.044;8.716;2023-11-19T07:26:45;1.38;;;0.30;;
25609;SDS011;13479;49.044;8.716;2023-11-19T07:29:12;1.00;;;0.40;;
25609;SDS011;13479;49.044;8.716;2023-11-19T07:31:38;3.22;;;0.60;;
25609;SDS011;13479;49.044;8.716;2023-11-19T07:34:03;0.88;;;0.40;;
25609;SDS011;13479;49.044;8.716;2023-11-19T07:36:30;1.30;;;0.40;;
25609;SDS011;13479;49.044;8.716;2023-11-19T07:38:56;1.63;;;0.40;;
25609;SDS011;13479;49.044;8.716;2023-11-19T07:41:22;1.50;;;0.45;;
25609;SDS011;13479;49.044;8.716;2023-11-19T07:43:50;4.05;;;0.50;;
25609;SDS011;13479;49.044;8.716;2023-11-19T07:46:16;2.42;;;0.40;;
25609;SDS011;13479;49.044;8.716;2023-11-19T07:48:44;2.47;;;0.43;;
25609;SDS011;13479;49.044;8.716;2023-11-19T07:51:10;3.10;;;0.40;;
25609;SDS011;13479;49.044;8.716;2023-11-19T07:53:36;2.20;;;0.65;;
25609;SDS011;13479;49.044;8.716;2023-11-19T07:56:03;1.40;;;0.50;;
25609;SDS011;13479;49.044;8.716;2023-11-19T07:58:29;1.02;;;0.40;;
25609;SDS011;13479;49.044;8.716;2023-11-19T08:00:54;2.42;;;0.40;;
25609;SDS011;13479;49.044;8.716;2023-11-19T08:03:19;1.63;;;0.30;;
25609;SDS011;13479;49.044;8.716;2023-11-19T08:05:46;1.15;;;0.40;;
25609;SDS011;13479;49.044;8.716;2023-11-19T08:08:12;0.93;;;0.50;;
25609;SDS011;13479;49.044;8.716;2023-11-19T08:10:37;2.58;;;0.40;;
25609;SDS011;13479;49.044;8.716;2023-11-19T08:13:03;2.05;;;0.40;;
25609;SDS011;13479;49.044;8.716;2023-11-19T08:15:28;0.90;;;0.50;;
25609;SDS011;13479;49.044;8.716;2023-11-19T08:17:54;2.45;;;0.50;;
25609;SDS011;13479;49.044;8.716;2023-11-19T08:20:19;1.33;;;0.50;;
25609;SDS011;13479;49.044;8.716;2023-11-19T08:22:44;1.45;;;0.50;;
25609;SDS011;13479;49.044;8.716;2023-11-19T08:25:09;1.00;;;0.43;;
25609;SDS011;13479;49.044;8.716;2023-11-19T08:27:35;1.10;;;0.47;;
25609;SDS011;13479;49.044;8.716;2023-11-19T08:30:00;2.05;;;0.57;;
25609;SDS011;13479;49.044;8.716;2023-11-19T08:32:26;0.98;;;0.40;;
25609;SDS011;13479;49.044;8.716;2023-11-19T08:34:51;2.55;;;0.60;;
25609;SDS011;13479;49.044;8.716;2023-11-19T08:37:17;1.85;;;0.47;;
25609;SDS011;13479;49.044;8.716;2023-11-19T08:39:45;2.28;;;0.57;;
25609;SDS011;13479;49.044;8.716;2023-11-19T08:42:11;1.33;;;0.50;;
25609;SDS011;13479;49.044;8.716;2023-11-19T08:44:37;1.63;;;0.50;;
25609;SDS011;13479;49.044;8.716;2023-11-19T08:47:02;1.33;;;0.50;;
25609;SDS011;13479;49.044;8.716;2023-11-19T08:49:27;0.73;;;0.38;;
25609;SDS011;13479;49.044;8.716;2023-11-19T08:51:53;0.98;;;0.40;;
25609;SDS011;13479;49.044;8.716;2023-11-19T08:54:18;2.63;;;0.40;;
25609;SDS011;13479;49.044;8.716;2023-11-19T08:56:45;0.60;;;0.32;;
25609;SDS011;13479;49.044;8.716;2023-11-19T08:59:10;1.48;;;0.40;;
25609;SDS011;13479;49.044;8.716;2023-11-19T09:01:35;0.82;;;0.30;;
25609;SDS011;13479;49.044;8.716;2023-11-19T09:04:01;1.08;;;0.40;;
25609;SDS011;13479;49.044;8.716;2023-11-19T09:06:26;1.30;;;0.40;;
25609;SDS011;13479;49.044;8.716;2023-11-19T09:08:52;1.77;;;0.40;;
25609;SDS011;13479;49.044;8.716;2023-11-19T09:11:17;0.85;;;0.40;;
25609;SDS011;13479;49.044;8.716;2023-11-19T09:13:43;0.73;;;0.35;;
25609;SDS011;13479;49.044;8.716;2023-11-19T09:16:11;3.45;;;0.52;;
25609;SDS011;13479;49.044;8.716;2023-11-19T09:18:37;0.70;;;0.30;;
25609;SDS011;13479;49.044;8.716;2023-11-19T09:21:02;1.55;;;0.30;;
25609;SDS011;13479;49.044;8.716;2023-11-19T09:23:28;2.72;;;0.45;;
25609;SDS011;13479;49.044;8.716;2023-11-19T09:25:55;3.95;;;0.50;;
25609;SDS011;13479;49.044;8.716;2023-11-19T09:28:21;1.55;;;0.40;;
25609;SDS011;13479;49.044;8.716;2023-11-19T09:30:46;1.20;;;0.30;;
25609;SDS011;13479;49.044;8.716;2023-11-19T09:33:11;0.85;;;0.50;;
25609;SDS011;13479;49.044;8.716;2023-11-19T09:35:37;1.90;;;0.30;;
25609;SDS011;13479;49.044;8.716;2023-11-19T09:38:02;1.10;;;0.40;;
25609;SDS011;13479;49.044;8.716;2023-11-19T09:40:30;1.13;;;0.40;;
25609;SDS011;13479;49.044;8.716;2023-11-19T09:42:56;0.40;;;0.40;;
25609;SDS011;13479;49.044;8.716;2023-11-19T09:45:22;1.80;;;0.40;;
25609;SDS011;13479;49.044;8.716;2023-11-19T09:47:52;1.02;;;0.50;;
25609;SDS011;13479;49.044;8.716;2023-11-19T09:50:19;2.78;;;0.40;;
25609;SDS011;13479;49.044;8.716;2023-11-19T09:52:45;2.45;;;0.70;;
25609;SDS011;13479;49.044;8.716;2023-11-19T09:55:11;3.58;;;0.40;;
25609;SDS011;13479;49.044;8.716;2023-11-19T09:57:38;2.28;;;0.70;;
25609;SDS011;13479;49.044;8.716;2023-11-19T10:00:04;0.68;;;0.40;;
25609;SDS011;13479;49.044;8.716;2023-11-19T10:02:31;1.85;;;0.50;;
25609;SDS011;13479;49.044;8.716;2023-11-19T10:04:59;1.80;;;0.52;;
25609;SDS011;13479;49.044;8.716;2023-11-19T10:07:27;0.80;;;0.50;;
25609;SDS011;13479;49.044;8.716;2023-11-19T10:09:53;1.35;;;0.45;;
25609;SDS011;13479;49.044;8.716;2023-11-19T10:12:18;1.92;;;0.35;;
25609;SDS011;13479;49.044;8.716;2023-11-19T10:14:43;1.30;;;0.40;;
25609;SDS011;13479;49.044;8.716;2023-11-19T10:17:09;1.90;;;0.40;;
25609;SDS011;13479;49.044;8.716;2023-11-19T10:19:35;2.47;;;0.45;;
25609;SDS011;13479;49.044;8.716;2023-11-19T10:22:09;4.32;;;0.50;;
25609;SDS011;13479;49.044;8.716;2023-11-19T10:24:36;1.40;;;0.50;;
25609;SDS011;13479;49.044;8.716;2023-11-19T10:27:04;1.60;;;0.55;;
25609;SDS011;13479;49.044;8.716;2023-11-19T10:29:35;2.15;;;0.50;;
25609;SDS011;13479;49.044;8.716;2023-11-19T10:32:01;3.38;;;0.82;;
25609;SDS011;13479;49.044;8.716;2023-11-19T10:34:27;2.50;;;0.50;;
25609;SDS011;13479;49.044;8.716;2023-11-19T10:36:52;0.77;;;0.30;;
25609;SDS011;13479;49.044;8.716;2023-11-19T10:39:18;1.42;;;0.40;;
25609;SDS011;13479;49.044;8.716;2023-11-19T10:41:43;1.15;;;0.40;;
25609;SDS011;13479;49.044;8.716;2023-11-19T10:44:09;1.83;;;0.52;;
25609;SDS011;13479;49.044;8.716;2023-11-19T10:49:07;1.42;;;0.50;;
25609;SDS011;13479;49.044;8.716;2023-11-19T10:51:33;1.23;;;0.40;;
25609;SDS011;13479;49.044;8.716;2023-11-19T10:54:01;1.02;;;0.45;;
25609;SDS011;13479;49.044;8.716;2023-11-19T10:56:31;1.25;;;0.40;;
25609;SDS011;13479;49.044;8.716;2023-11-19T10:59:00;2.03;;;0.50;;
25609;SDS011;13479;49.044;8.716;2023-11-19T11:01:32;1.60;;;0.47;;
25609;SDS011;13479;49.044;8.716;2023-11-19T11:04:05;2.22;;;0.50;;
25609;SDS011;13479;49.044;8.716;2023-11-19T11:06:38;1.00;;;0.47;;
25609;SDS011;13479;49.044;8.716;2023-11-19T11:09:05;2.40;;;0.50;;
25609;SDS011;13479;49.044;8.716;2023-11-19T11:11:31;3.13;;;0.60;;
25609;SDS011;13479;49.044;8.716;2023-11-19T11:13:57;1.52;;;0.60;;
25609;SDS011;13479;49.044;8.716;2023-11-19T11:16:26;1.77;;;0.40;;
25609;SDS011;13479;49.044;8.716;2023-11-19T11:18:53;2.28;;;0.75;;
25609;SDS011;13479;49.044;8.716;2023-11-19T11:21:20;3.83;;;1.13;;
25609;SDS011;13479;49.044;8.716;2023-11-19T11:26:53;1.25;;;0.55;;
25609;SDS011;13479;49.044;8.716;2023-11-19T11:30:07;3.30;;;0.63;;
25609;SDS011;13479;49.044;8.716;2023-11-19T11:32:44;1.83;;;0.63;;
25609;SDS011;13479;49.044;8.716;2023-11-19T11:35:30;2.67;;;0.57;;
25609;SDS011;13479;49.044;8.716;2023-11-19T11:38:10;1.73;;;0.70;;
25609;SDS011;13479;49.044;8.716;2023-11-19T11:40:36;2.05;;;0.60;;
25609;SDS011;13479;49.044;8.716;2023-11-19T11:43:02;3.08;;;0.70;;
25609;SDS011;13479;49.044;8.716;2023-11-19T11:45:38;1.70;;;0.57;;
25609;SDS011;13479;49.044;8.716;2023-11-19T11:48:16;2.00;;;0.70;;
25609;SDS011;13479;49.044;8.716;2023-11-19T11:51:03;5.50;;;0.80;;
25609;SDS011;13479;49.044;8.716;2023-11-19T11:53:28;2.55;;;0.57;;
25609;SDS011;13479;49.044;8.716;2023-11-19T11:55:55;1.70;;;0.50;;
25609;SDS011;13479;49.044;8.716;2023-11-19T11:58:32;1.50;;;0.50;;
25609;SDS011;13479;49.044;8.716;2023-11-19T12:01:01;1.92;;;0.60;;
25609;SDS011;13479;49.044;8.716;2023-11-19T12:03:28;2.40;;;0.63;;
25609;SDS011;13479;49.044;8.716;2023-11-19T12:05:54;3.25;;;0.90;;
25609;SDS011;13479;49.044;8.716;2023-11-19T12:08:24;1.00;;;0.55;;
25609;SDS011;13479;49.044;8.716;2023-11-19T12:10:51;2.22;;;0.55;;
25609;SDS011;13479;49.044;8.716;2023-11-19T12:13:18;5.10;;;0.90;;
25609;SDS011;13479;49.044;8.716;2023-11-19T12:18:26;2.22;;;0.63;;
25609;SDS011;13479;49.044;8.716;2023-11-19T12:20:52;1.38;;;0.60;;
25609;SDS011;13479;49.044;8.716;2023-11-19T12:23:18;1.17;;;0.45;;
25609;SDS011;13479;49.044;8.716;2023-11-19T12:25:43;1.25;;;0.57;;
25609;SDS011;13479;49.044;8.716;2023-11-19T12:28:13;2.67;;;0.60;;
25609;SDS011;13479;49.044;8.716;2023-11-19T12:30:41;4.75;;;0.65;;
25609;SDS011;13479;49.044;8.716;2023-11-19T12:33:09;1.13;;;0.60;;
25609;SDS011;13479;49.044;8.716;2023-11-19T12:35:42;2.80;;;0.70;;
25609;SDS011;13479;49.044;8.716;2023-11-19T12:38:21;3.22;;;0.50;;
25609;SDS011;13479;49.044;8.716;2023-11-19T12:41:02;1.50;;;0.60;;
25609;SDS011;13479;49.044;8.716;2023-11-19T12:43:31;1.23;;;0.60;;
25609;SDS011;13479;49.044;8.716;2023-11-19T12:45:56;2.97;;;0.55;;
25609;SDS011;13479;49.044;8.716;2023-11-19T12:48:22;1.67;;;0.60;;
25609;SDS011;13479;49.044;8.716;2023-11-19T12:53:21;4.35;;;0.68;;
25609;SDS011;13479;49.044;8.716;2023-11-19T12:55:48;1.20;;;0.45;;
25609;SDS011;13479;49.044;8.716;2023-11-19T12:58:32;1.75;;;0.60;;
25609;SDS011;13479;49.044;8.716;2023-11-19T13:01:00;1.83;;;0.57;;
25609;SDS011;13479;49.044;8.716;2023-11-19T13:03:30;2.35;;;0.70;;
25609;SDS011;13479;49.044;8.716;2023-11-19T13:06:06;1.90;;;0.80;;
25609;SDS011;13479;49.044;8.716;2023-11-19T13:08:42;3.88;;;0.57;;
25609;SDS011;13479;49.044;8.716;2023-11-19T13:11:09;3.17;;;0.82;;
25609;SDS011;13479;49.044;8.716;2023-11-19T13:16:20;4.60;;;1.00;;
25609;SDS011;13479;49.044;8.716;2023-11-19T13:18:45;3.45;;;0.77;;
25609;SDS011;13479;49.044;8.716;2023-11-19T13:21:10;4.97;;;1.67;;
25609;SDS011;13479;49.044;8.716;2023-11-19T13:23:36;2.38;;;0.70;;
25609;SDS011;13479;49.044;8.716;2023-11-19T13:26:01;2.10;;;0.75;;
25609;SDS011;13479;49.044;8.716;2023-11-19T13:28:26;2.92;;;0.68;;
25609;SDS011;13479;49.044;8.716;2023-11-19T13:30:52;2.35;;;0.65;;
25609;SDS011;13479;49.044;8.716;2023-11-19T13:33:19;1.58;;;0.60;;
25609;SDS011;13479;49.044;8.716;2023-11-19T13:35:44;2.13;;;0.65;;
25609;SDS011;13479;49.044;8.716;2023-11-19T13:38:10;2.30;;;0.65;;
25609;SDS011;13479;49.044;8.716;2023-11-19T13:40:35;2.05;;;0.63;;
25609;SDS011;13479;49.044;8.716;2023-11-19T13:43:01;1.60;;;0.68;;
25609;SDS011;13479;49.044;8.716;2023-11-19T13:45:26;2.92;;;0.60;;
25609;SDS011;13479;49.044;8.716;2023-11-19T13:47:52;2.45;;;0.50;;
25609;SDS011;13479;49.044;8.716;2023-11-19T13:50:17;2.83;;;0.65;;
25609;SDS011;13479;49.044;8.716;2023-11-19T13:52:43;1.63;;;0.57;;
25609;SDS011;13479;49.044;8.716;2023-11-19T13:55:12;1.83;;;0.63;;
25609;SDS011;13479;49.044;8.716;2023-11-19T13:57:37;2.28;;;0.70;;
25609;SDS011;13479;49.044;8.716;2023-11-19T14:00:04;1.15;;;0.47;;
25609;SDS011;13479;49.044;8.716;2023-11-19T14:02:41;6.25;;;1.13;;
25609;SDS011;13479;49.044;8.716;2023-11-19T14:05:07;3.38;;;0.90;;
25609;SDS011;13479;49.044;8.716;2023-11-19T14:07:33;2.10;;;0.50;;
25609;SDS011;13479;49.044;8.716;2023-11-19T14:09:58;3.22;;;0.60;;
25609;SDS011;13479;49.044;8.716;2023-11-19T14:12:24;3.95;;;0.60;;
25609;SDS011;13479;49.044;8.716;2023-11-19T14:14:49;5.05;;;0.70;;
25609;SDS011;13479;49.044;8.716;2023-11-19T14:17:15;2.42;;;0.85;;
25609;SDS011;13479;49.044;8.716;2023-11-19T14:19:41;6.65;;;0.82;;
25609;SDS011;13479;49.044;8.716;2023-11-19T14:22:07;2.90;;;0.60;;
25609;SDS011;13479;49.044;8.716;2023-11-19T14:24:33;3.15;;;1.10;;
25609;SDS011;13479;49.044;8.716;2023-11-19T14:26:59;4.05;;;0.50;;
25609;SDS011;13479;49.044;8.716;2023-11-19T14:29:24;3.05;;;0.70;;
25609;SDS011;13479;49.044;8.716;2023-11-19T14:31:54;2.90;;;0.90;;
25609;SDS011;13479;49.044;8.716;2023-11-19T14:34:20;2.30;;;0.70;;
25609;SDS011;13479;49.044;8.716;2023-11-19T14:36:45;3.42;;;0.75;;
25609;SDS011;13479;49.044;8.716;2023-11-19T14:39:11;4.93;;;0.77;;
25609;SDS011;13479;49.044;8.716;2023-11-19T14:41:37;2.15;;;0.60;;
25609;SDS011;13479;49.044;8.716;2023-11-19T14:44:02;2.25;;;0.70;;
25609;SDS011;13479;49.044;8.716;2023-11-19T14:46:28;2.50;;;0.60;;
25609;SDS011;13479;49.044;8.716;2023-11-19T14:48:54;3.35;;;0.63;;
25609;SDS011;13479;49.044;8.716;2023-11-19T14:51:19;10.52;;;1.02;;
25609;SDS011;13479;49.044;8.716;2023-11-19T14:53:46;3.55;;;0.80;;
25609;SDS011;13479;49.044;8.716;2023-11-19T14:56:12;2.72;;;0.60;;
25609;SDS011;13479;49.044;8.716;2023-11-19T14:58:38;1.65;;;0.70;;
25609;SDS011;13479;49.044;8.716;2023-11-19T15:01:03;3.15;;;0.77;;
25609;SDS011;13479;49.044;8.716;2023-11-19T15:03:29;3.45;;;0.70;;
25609;SDS011;13479;49.044;8.716;2023-11-19T15:05:55;3.20;;;0.73;;
25609;SDS011;13479;49.044;8.716;2023-11-19T15:08:21;3.33;;;0.80;;
25609;SDS011;13479;49.044;8.716;2023-11-19T15:10:46;2.85;;;0.63;;
25609;SDS011;13479;49.044;8.716;2023-11-19T15:13:11;1.50;;;0.60;;
25609;SDS011;13479;49.044;8.716;2023-11-19T15:15:37;4.50;;;0.90;;
25609;SDS011;13479;49.044;8.716;2023-11-19T15:18:03;1.98;;;0.90;;
25609;SDS011;13479;49.044;8.716;2023-11-19T15:20:29;3.35;;;0.80;;
25609;SDS011;13479;49.044;8.716;2023-11-19T15:22:56;1.67;;;0.60;;
25609;SDS011;13479;49.044;8.716;2023-11-19T15:25:22;1.35;;;0.63;;
25609;SDS011;13479;49.044;8.716;2023-11-19T15:27:48;2.25;;;0.65;;
25609;SDS011;13479;49.044;8.716;2023-11-19T15:30:14;2.10;;;0.60;;
25609;SDS011;13479;49.044;8.716;2023-11-19T15:32:40;2.80;;;0.57;;
25609;SDS011;13479;49.044;8.716;2023-11-19T15:35:07;2.35;;;0.60;;
25609;SDS011;13479;49.044;8.716;2023-11-19T15:37:33;1.98;;;0.60;;
25609;SDS011;13479;49.044;8.716;2023-11-19T15:39:58;2.00;;;0.60;;
25609;SDS011;13479;49.044;8.716;2023-11-19T15:42:24;2.05;;;0.60;;
25609;SDS011;13479;49.044;8.716;2023-11-19T15:44:49;1.60;;;0.60;;
25609;SDS011;13479;49.044;8.716;2023-11-19T15:47:15;2.15;;;0.60;;
25609;SDS011;13479;49.044;8.716;2023-11-19T15:49:40;2.55;;;0.80;;
25609;SDS011;13479;49.044;8.716;2023-11-19T15:52:06;2.13;;;0.63;;
25609;SDS011;13479;49.044;8.716;2023-11-19T15:54:31;1.80;;;0.75;;
25609;SDS011;13479;49.044;8.716;2023-11-19T15:56:56;3.95;;;0.80;;
25609;SDS011;13479;49.044;8.716;2023-11-19T15:59:22;1.20;;;0.55;;
25609;SDS011;13479;49.044;8.716;2023-11-19T16:01:47;1.83;;;0.80;;
25609;SDS011;13479;49.044;8.716;2023-11-19T16:04:12;1.88;;;0.50;;
25609;SDS011;13479;49.044;8.716;2023-11-19T16:06:38;4.40;;;0.70;;
25609;SDS011;13479;49.044;8.716;2023-11-19T16:09:03;1.63;;;0.57;;
25609;SDS011;13479;49.044;8.716;2023-11-19T16:11:28;3.38;;;0.60;;
25609;SDS011;13479;49.044;8.716;2023-11-19T16:13:54;3.33;;;0.65;;
25609;SDS011;13479;49.044;8.716;2023-11-19T16:16:19;2.83;;;0.60;;
25609;SDS011;13479;49.044;8.716;2023-11-19T16:18:44;3.13;;;0.73;;
25609;SDS011;13479;49.044;8.716;2023-11-19T16:21:10;2.42;;;0.73;;
25609;SDS011;13479;49.044;8.716;2023-11-19T16:23:35;3.88;;;0.73;;
25609;SDS011;13479;49.044;8.716;2023-11-19T16:26:00;1.60;;;0.55;;
25609;SDS011;13479;49.044;8.716;2023-11-19T16:28:26;2.78;;;0.60;;
25609;SDS011;13479;49.044;8.716;2023-11-19T16:30:51;2.97;;;0.47;;
25609;SDS011;13479;49.044;8.716;2023-11-19T16:33:17;1.50;;;0.50;;
25609;SDS011;13479;49.044;8.716;2023-11-19T16:35:43;2.03;;;0.60;;
25609;SDS011;13479;49.044;8.716;2023-11-19T16:38:08;2.70;;;0.70;;
25609;SDS011;13479;49.044;8.716;2023-11-19T16:40:34;3.50;;;0.70;;
25609;SDS011;13479;49.044;8.716;2023-11-19T16:43:03;2.38;;;0.75;;
25609;SDS011;13479;49.044;8.716;2023-11-19T16:45:32;2.13;;;0.68;;
25609;SDS011;13479;49.044;8.716;2023-11-19T16:47:58;3.67;;;0.80;;
25609;SDS011;13479;49.044;8.716;2023-11-19T16:50:23;4.72;;;0.80;;
25609;SDS011;13479;49.044;8.716;2023-11-19T16:52:49;3.75;;;0.85;;
25609;SDS011;13479;49.044;8.716;2023-11-19T16:55:14;1.58;;;0.50;;
25609;SDS011;13479;49.044;8.716;2023-11-19T16:57:41;1.85;;;0.63;;
25609;SDS011;13479;49.044;8.716;2023-11-19T17:00:09;1.80;;;0.70;;
25609;SDS011;13479;49.044;8.716;2023-11-19T17:02:38;3.38;;;0.60;;
25609;SDS011;13479;49.044;8.716;2023-11-19T17:05:07;2.60;;;0.85;;
25609;SDS011;13479;49.044;8.716;2023-11-19T17:07:33;1.83;;;0.80;;
25609;SDS011;13479;49.044;8.716;2023-11-19T17:09:58;5.60;;;0.90;;
25609;SDS011;13479;49.044;8.716;2023-11-19T17:12:24;4.80;;;1.02;;
25609;SDS011;13479;49.044;8.716;2023-11-19T17:14:49;2.90;;;0.80;;
25609;SDS011;13479;49.044;8.716;2023-11-19T17:17:14;4.13;;;0.93;;
25609;SDS011;13479;49.044;8.716;2023-11-19T17:19:39;3.63;;;0.60;;
25609;SDS011;13479;49.044;8.716;2023-11-19T17:22:06;2.05;;;0.77;;
25609;SDS011;13479;49.044;8.716;2023-11-19T17:24:32;3.90;;;0.80;;
25609;SDS011;13479;49.044;8.716;2023-11-19T17:26:57;1.17;;;0.50;;
25609;SDS011;13479;49.044;8.716;2023-11-19T17:29:22;2.25;;;0.60;;
25609;SDS011;13479;49.044;8.716;2023-11-19T17:31:47;4.28;;;0.70;;
25609;SDS011;13479;49.044;8.716;2023-11-19T17:34:13;5.00;;;0.98;;
25609;SDS011;13479;49.044;8.716;2023-11-19T17:36:38;3.78;;;0.85;;
25609;SDS011;13479;49.044;8.716;2023-11-19T17:39:03;6.32;;;0.90;;
25609;SDS011;13479;49.044;8.716;2023-11-19T17:41:32;3.85;;;1.08;;
25609;SDS011;13479;49.044;8.716;2023-11-19T17:43:57;4.68;;;0.93;;
25609;SDS011;13479;49.044;8.716;2023-11-19T17:46:22;3.38;;;1.00;;
25609;SDS011;13479;49.044;8.716;2023-11-19T17:48:48;2.72;;;0.82;;
25609;SDS011;13479;49.044;8.716;2023-11-19T17:51:14;2.35;;;0.80;;
25609;SDS011;13479;49.044;8.716;2023-11-19T17:53:42;3.95;;;0.90;;
25609;SDS011;13479;49.044;8.716;2023-11-19T17:56:07;4.40;;;0.70;;
25609;SDS011;13479;49.044;8.716;2023-11-19T17:58:33;4.50;;;0.80;;
25609;SDS011;13479;49.044;8.716;2023-11-19T18:00:58;2.42;;;0.80;;
25609;SDS011;13479;49.044;8.716;2023-11-19T18:03:23;2.28;;;0.70;;
25609;SDS011;13479;49.044;8.716;2023-11-19T18:05:49;5.15;;;0.80;;
25609;SDS011;13479;49.044;8.716;2023-11-19T18:08:14;3.88;;;0.68;;
25609;SDS011;13479;49.044;8.716;2023-11-19T18:10:43;3.70;;;0.70;;
25609;SDS011;13479;49.044;8.716;2023-11-19T18:13:10;6.57;;;0.90;;
25609;SDS011;13479;49.044;8.716;2023-11-19T18:15:36;4.50;;;0.73;;
25609;SDS011;13479;49.044;8.716;2023-11-19T18:18:01;3.38;;;1.00;;
25609;SDS011;13479;49.044;8.716;2023-11-19T18:20:27;5.97;;;0.90;;
25609;SDS011;13479;49.044;8.716;2023-11-19T18:22:52;3.15;;;0.93;;
25609;SDS011;13479;49.044;8.716;2023-11-19T18:25:19;3.58;;;0.70;;
25609;SDS011;13479;49.044;8.716;2023-11-19T18:27:45;5.20;;;1.00;;
25609;SDS011;13479;49.044;8.716;2023-11-19T18:30:11;5.15;;;1.15;;
25609;SDS011;13479;49.044;8.716;2023-11-19T18:32:38;3.78;;;1.00;;
25609;SDS011;13479;49.044;8.716;2023-11-19T18:35:06;8.52;;;1.35;;
25609;SDS011;13479;49.044;8.716;2023-11-19T18:37:36;4.32;;;1.10;;
25609;SDS011;13479;49.044;8.716;2023-11-19T18:40:02;7.60;;;1.05;;
25609;SDS011;13479;49.044;8.716;2023-11-19T18:42:30;4.45;;;1.13;;
25609;SDS011;13479;49.044;8.716;2023-11-19T18:44:55;5.55;;;1.00;;
25609;SDS011;13479;49.044;8.716;2023-11-19T18:47:20;3.60;;;1.27;;
25609;SDS011;13479;49.044;8.716;2023-11-19T18:49:46;7.50;;;1.38;;
25609;SDS011;13479;49.044;8.716;2023-11-19T18:52:11;5.20;;;1.38;;
25609;SDS011;13479;49.044;8.716;2023-11-19T18:54:36;3.85;;;1.00;;
25609;SDS011;13479;49.044;8.716;2023-11-19T18:57:02;6.03;;;1.30;;
25609;SDS011;13479;49.044;8.716;2023-11-19T18:59:29;3.53;;;0.90;;
25609;SDS011;13479;49.044;8.716;2023-11-19T19:01:54;5.50;;;1.33;;
25609;SDS011;13479;49.044;8.716;2023-11-19T19:04:19;7.13;;;1.20;;
25609;SDS011;13479;49.044;8.716;2023-11-19T19:06:47;8.68;;;1.77;;
25609;SDS011;13479;49.044;8.716;2023-11-19T19:09:13;9.18;;;1.35;;
25609;SDS011;13479;49.044;8.716;2023-11-19T19:11:39;7.55;;;1.27;;
25609;SDS011;13479;49.044;8.716;2023-11-19T19:14:04;4.15;;;1.05;;
25609;SDS011;13479;49.044;8.716;2023-11-19T19:16:30;6.35;;;1.48;;
25609;SDS011;13479;49.044;8.716;2023-11-19T19:18:55;8.40;;;1.67;;
25609;SDS011;13479;49.044;8.716;2023-11-19T19:21:20;7.20;;;1.30;;
25609;SDS011;13479;49.044;8.716;2023-11-19T19:23:46;8.52;;;1.40;;
25609;SDS011;13479;49.044;8.716;2023-11-19T19:26:12;11.38;;;2.03;;
25609;SDS011;13479;49.044;8.716;2023-11-19T19:28:37;7.45;;;1.60;;
25609;SDS011;13479;49.044;8.716;2023-11-19T19:31:04;7.25;;;1.52;;
25609;SDS011;13479;49.044;8.716;2023-11-19T19:33:30;9.13;;;1.75;;
25609;SDS011;13479;49.044;8.716;2023-11-19T19:35:55;6.65;;;1.20;;
25609;SDS011;13479;49.044;8.716;2023-11-19T19:38:20;9.68;;;1.27;;
25609;SDS011;13479;49.044;8.716;2023-11-19T19:40:46;9.57;;;1.42;;
25609;SDS011;13479;49.044;8.716;2023-11-19T19:43:11;11.57;;;1.50;;
25609;SDS011;13479;49.044;8.716;2023-11-19T19:45:36;8.10;;;1.25;;
25609;SDS011;13479;49.044;8.716;2023-11-19T19:48:02;9.35;;;1.70;;
25609;SDS011;13479;49.044;8.716;2023-11-19T19:50:28;14.60;;;1.70;;
25609;SDS011;13479;49.044;8.716;2023-11-19T19:52:53;6.25;;;1.02;;
25609;SDS011;13479;49.044;8.716;2023-11-19T19:55:20;7.38;;;1.70;;
25609;SDS011;13479;49.044;8.716;2023-11-19T19:57:46;9.23;;;1.67;;